Weather observations for the past three days for
Destin, Destin-Ft. Walton Beach Airport
Metric (Imperial)
Date Time (cdt) Wind (kph) Vis. (km) Weather Sky Cond. Temperature (ºC) Relative Humidity Wind Chill (°C) Heat Index (°C) Pressure Precipitation (cm)
Air Dwpt 6 hour altimeter (cm) sea level (mb) 1 hr 3 hr 6 hr
Max. Min.
05 07:53 E 7 16.09 Overcast BKN027 OVC034 18.9 15 78% 76.17 1015.4
05 06:53 E 9 16.09 Mostly Cloudy SCT036 BKN047 17.8 15 20 15.6 84% 76.15 1015.2
05 05:53 NE 6 16.09 Overcast OVC032 17.8 15 84% 76.1 1014.5
05 04:53 Calm 16.09 Partly Cloudy SCT033 16.7 14.4 86% 76.1 1014.3
05 03:53 Calm 16.09 Fair CLR 16.1 12.8 81% 76.02 1013.5
05 02:53 Calm 16.09 Fair CLR 16.1 12.8 81% 76.02 1013.5
05 01:53 Calm 16.09 Fair CLR 20 12.8 63% 76.07 1014.1
05 00:53 Calm 16.09 Fair CLR 20 11.1 22.2 20 57% 76.12 1014.9
04 22:53 S 11 16.09 Fair CLR 21.1 10 49% 76.15 1015.2
04 21:53 S 6 16.09 Fair CLR 21.1 10 49% 76.17 1015.4
04 20:53 Calm 16.09 Fair CLR 21.1 9.4 47% 76.2 1015.7
04 19:53 SW 6 16.09 Fair CLR 21.7 8.9 44% 76.17 1015.6
04 18:53 Vrbl 6 16.09 Fair CLR 22.2 8.9 24.4 22.2 43% 76.15 1015.2
04 17:53 Calm 16.09 Fair CLR 23.3 8.9 40% 76.15 1015.2
04 16:53 SW 13 16.09 Fair CLR 23.3 7.8 37% 76.17 1015.5
04 15:53 S 17 16.09 Fair CLR 24.4 7.2 33% 25 76.17 1015.5
04 14:53 Vrbl 11 16.09 Fair CLR 23.9 6.1 32% 25 76.23 1016.0
04 12:53 SE 11 16.09 Fair CLR 24.4 6.1 24.4 17.8 31% 25 76.3 1017.2
04 11:53 S 9 16.09 Fair CLR 23.9 6.7 33% 25 76.35 1017.8
04 10:53 SE 11 16.09 Fair CLR 23.9 6.1 32% 25 76.4 1018.5
04 09:53 SE 11 16.09 Fair CLR 22.8 5.6 33% 76.4 1018.5
04 08:53 E 6 16.09 Fair CLR 21.7 8.3 42% 76.4 1018.6
04 07:53 E 9 16.09 Fair CLR 19.4 10 55% 76.38 1018.2
04 06:53 NE 7 16.09 Fair CLR 17.8 10 17.8 14.4 60% 76.35 1017.8
04 05:53 NE 6 16.09 Fair CLR 16.7 9.4 62% 76.33 1017.5
04 04:53 NE 7 16.09 Fair CLR 16.7 7.8 56% 76.35 1017.8
04 03:53 NE 7 16.09 Fair CLR 15.6 8.3 62% 76.35 1017.8
04 02:53 Calm 16.09 Fair CLR 15.6 10.6 72% 76.35 1018.0
04 01:53 N 9 16.09 Fair CLR 15.6 11.7 78% 76.38 1018.2
04 00:53 Calm 16.09 Fair CLR 16.1 11.1 22.2 15.6 72% 76.4 1018.6
03 23:53 N 7 16.09 Fair CLR 17.2 12.2 73% 76.43 1018.8
03 22:53 NW 6 16.09 Fair CLR 19.4 11.7 61% 76.4 1018.6
03 21:53 Calm 16.09 Fair CLR 20.6 10.6 53% 76.4 1018.7
03 20:53 Vrbl 6 16.09 Fair CLR 21.1 10 49% 76.38 1018.2
03 19:53 Calm 16.09 Fair CLR 21.7 10 47% 76.33 1017.7
03 18:53 Calm 16.09 Fair CLR 22.2 7.8 25 22.2 40% 76.3 1017.3
03 17:53 Vrbl 9 16.09 Fair CLR 22.8 7.2 37% 76.3 1017.2
03 16:53 Calm 16.09 Fair CLR 22.8 6.7 35% 76.33 1017.5
03 15:53 SW 13 G 26 16.09 Fair CLR 23.3 6.7 34% 76.35 1017.8
03 14:53 Vrbl 6 16.09 Fair CLR 24.4 2.8 25% 25 76.4 1018.5
03 13:53 N 13 16.09 Fair CLR 24.4 3.3 25% 25 76.48 1019.5
03 12:53 NE 13 16.09 Fair CLR 23.9 3.3 25 14.4 26% 25 76.5 1019.9
03 11:53 N 15 16.09 Fair CLR 22.8 2.8 27% 76.56 1020.7
03 10:53 N 15 16.09 Fair CLR 22.2 2.8 28% 76.63 1021.4
03 09:53 N 15 16.09 Fair CLR 21.1 5.6 37% 76.63 1021.5
03 08:53 N 15 16.09 Fair CLR 18.9 6.7 45% 76.58 1020.9
03 07:53 N 9 16.09 Fair CLR 17.2 7.8 54% 76.56 1020.6
03 06:53 N 9 16.09 Fair CLR 14.4 8.9 15.6 11.7 70% 76.56 1020.4
03 05:53 N 6 16.09 Fair CLR 12.2 8.9 80% 76.48 1019.7
03 04:53 Calm 16.09 Fair CLR 12.2 7.8 75% 76.48 1019.4
03 03:53 N 6 16.09 Fair CLR 13.3 8.3 72% 76.45 1019.1
03 02:53 N 7 16.09 Fair CLR 15 8.3 64% 76.4 1018.4
03 01:53 N 13 16.09 Fair CLR 15.6 7.8 60% 76.38 1018.3
03 00:53 N 9 16.09 Fair CLR 15.6 7.2 21.7 15.6 58% 76.4 1018.4
02 23:53 N 9 16.09 Fair CLR 16.1 7.2 56% 76.38 1018.1
02 22:53 N 9 16.09 Fair CLR 16.7 7.2 54% 76.33 1017.5
02 21:53 N 15 16.09 Fair CLR 17.8 6.7 48% 76.3 1017.1
02 20:53 N 17 16.09 Fair CLR 18.9 6.7 45% 76.23 1016.1
02 19:53 N 20 16.09 Fair CLR 20 7.2 44% 76.15 1015.1
02 18:53 N 24 16.09 Fair CLR 21.7 8.9 24.4 20 44% 76.02 1013.5
02 17:53 N 20 16.09 Fair CLR 22.8 10.6 46% 75.97 1012.8
02 16:53 N 22 G 43 16.09 A Few Clouds FEW050 23.9 10.6 43% 25 75.95 1012.5
02 15:53 N 17 G 33 16.09 A Few Clouds FEW048 23.3 11.1 46% 75.95 1012.3
02 14:53 N 24 G 50 16.09 Partly Cloudy SCT043 22.8 11.7 50% 75.97 1012.7
02 13:53 N 19 16.09 Fair CLR 21.7 12.8 57% 76 1013.2
02 12:53 N 20 16.09 Partly Cloudy FEW028 SCT110 20.6 12.8 20.6 13.3 61% 76.02 1013.6
02 11:53 NE 15 G 35 16.09 Overcast SCT021 BKN040 OVC047 18.9 12.8 68% 76.02 1013.4
02 10:53 N 22 16.09 Overcast BKN029 OVC038 17.2 12.8 76% 76.02 1013.5
02 09:53 N 20 G 33 16.09 Overcast BKN012 OVC027 14.4 11.7 84% 76.05 1013.6
02 08:53 N 20 G 33 16.09 Overcast BKN011 OVC024 13.9 12.2 90% 75.92 1012.2
Date Time (cdt) Wind (kph) Vis. (km) Weather Sky Cond. Air Dwpt Max. Min. Relative Humidity Wind Chill (°C) Heat Index (°C) altimeter (cm) sea level (mb) 1 hr 3 hr 6 hr
6 hour
Temperature (ºC) Pressure Precipitation (cm)